Banks, Mississippi
Current Conditions -  °F | °C
As of 9:55 PM on Sunday 23 Nov 2014 (Local Time) from KUTA Reporting Station
Clear Clear  
Wind Chill: 15°   Ceiling: Unl
Heat Index: 15°   Visibility: 10mi
Dew Point: 14°   Wind: 12mph
Humidity: 94%   Direction: 180°S
Pressure: 29.48"   Gusts: 17mph
Location:  34.8092°N, 90.3159°W
Report Text: KUTA 240355Z AUTO 18010G15KT 10SM CLR 15/14 A2948 RMK AO2
Loading
Personal Weather Stations






























Interactive Weather Map New forecast layout! Learn more

10-Day Weather Forecast

Advertisements
Track Severe Weather on mobile